< < Back
Terminal Aerodrome Forecast


Current Version              Previous Versions:   1  2  3  4  5  6  7  8  9  

Terminal Aerodrome Forecast

050
FTUS42 KILM 271200 CCA
TAFILM
TAF COR
KILM 271234Z 2712/2812 32012KT P6SM SCT007 BKN014
      TEMPO 2712/2714 BKN009
     FM271500 32011KT P6SM FEW015 SCT025 SCT050
     FM272200 30007KT P6SM FEW050
     FM280200 VRB03KT P6SM SKC=



Latest METAR

351
SAUS70 KWBC 271700 RRL
MTRILM
METAR KILM 271653Z 33012G18KT 10SM OVC017 04/01 A2980 RMK AO2 SLP091
T00440006


USA.gov is the U.S. government's official web portal to all federal, state and local government web resources and services.